map of POS home
POS - Airport
Location
City:  Port of Spain, Trinidad Island, Trinidad and Tobago
Name:Piarco International Airport
ICAO:TTPP
IATA:POS

Details
Type:Airport (Aerodrome, Airfield)
Use:International (customs port of entry)
Latitude:1035'43"N (10.595278)
Longitude:6120'14"W (-61.337221)
Elevation:58 ft (18 m)
Variation:15.06W (WMM2015v2 magnetic declination)
-0.06 annual change
Runways:1
Longest:10495 × 148 ft (3199 × 45 m), paved

Time
Time Zone:UTC-4
Local Time:

Weather
METAR:TTPP 041400Z 10013KT 9999 FEW028 28/20 Q1015 NOSIG

Related Locations
Nearby:
Farthest:TMC: 12342 mi / 19863 km
Tambolaka, NT, ID

Find:

   beyond  
but within

Other Information
Maps:
NOTAMs:
Links:
Sources:

  
  • flag of Trinidad and Tobago
  

Airport Diagram

Airport diagram for POS

Airport diagram PDF

Sectional Chart

Flight Planning
at skyvector.com

Satellite Image

Google Maps Satellite view

 

Copyright © 2004-2019 Karl L. Swartz. All rights reserved.
The Great Circle Mapper name and logo are trademarks of the Great Circle Mapper.
All other trademarks mentioned herein belong to their respective owners.
Please see credits for attibutions and further copyright information.

  Follow gcmap on Facebook Follow gcmap on Twitter GCmap on LinkedIn

hCard Microformat

Geo Microformat